Time;durP1;ratioP1;P1;durP2;ratioP2;P2;SDS_P1;SDS_P2;PMS_P1;PMS_P2;Temp;Humidity;BMP_temperature;BMP_pressure;BME280_temperature;BME280_humidity;BME280_pressure;Samples;Min_cycle;Max_cycle;Signal;HPM_P1;HPM_P2
2023/07/17 00:00:12;;;;;;;2.00;1.90;;;24.50;45.30;;;;;;4973068;28;20254;-63
2023/07/17 00:02:39;;;;;;;1.80;1.70;;;24.50;45.30;;;;;;4973795;28;20957;-65
2023/07/17 00:05:06;;;;;;;2.00;1.90;;;24.50;45.40;;;;;;4981716;28;20455;-65
2023/07/17 00:07:31;;;;;;;1.70;1.60;;;24.50;45.30;;;;;;5018347;28;20953;-63
2023/07/17 00:09:57;;;;;;;1.53;1.43;;;24.50;45.30;;;;;;4975867;28;20470;-62
2023/07/17 00:12:22;;;;;;;1.70;1.60;;;24.50;45.30;;;;;;4974252;28;20229;-63
2023/07/17 00:14:48;;;;;;;1.70;1.60;;;24.50;45.30;;;;;;4991803;28;20219;-64
2023/07/17 00:17:15;;;;;;;1.63;1.53;;;24.50;45.30;;;;;;4995163;28;20235;-63
2023/07/17 00:19:41;;;;;;;1.53;1.43;;;24.50;45.30;;;;;;4993366;28;20960;-63
2023/07/17 00:22:07;;;;;;;1.50;1.40;;;24.50;45.30;;;;;;4982400;28;20546;-64
2023/07/17 00:24:33;;;;;;;1.70;1.60;;;24.50;45.30;;;;;;4992712;28;20460;-62
2023/07/17 00:26:59;;;;;;;1.80;1.70;;;24.50;45.30;;;;;;4982223;28;20525;-62
2023/07/17 00:29:28;;;;;;;1.40;1.30;;;24.50;45.40;;;;;;5018117;28;20780;-63
2023/07/17 00:31:54;;;;;;;1.63;1.53;;;24.50;45.30;;;;;;4977475;28;20240;-62
2023/07/17 00:34:20;;;;;;;1.63;1.53;;;24.50;45.30;;;;;;4975202;28;20449;-63
2023/07/17 00:36:46;;;;;;;2.20;2.07;;;24.50;45.40;;;;;;4983438;28;20461;-62
2023/07/17 00:39:14;;;;;;;1.80;1.70;;;24.50;45.40;;;;;;4982623;28;20595;-63
2023/07/17 00:41:40;;;;;;;1.70;1.60;;;24.50;45.40;;;;;;4978353;28;20460;-63
2023/07/17 00:44:05;;;;;;;1.80;1.70;;;24.50;45.40;;;;;;4979129;28;20455;-64
2023/07/17 00:46:33;;;;;;;1.70;1.60;;;24.50;45.40;;;;;;4976034;28;20235;-63
2023/07/17 00:49:00;;;;;;;1.70;1.60;;;24.50;45.40;;;;;;4974723;28;20678;-62
2023/07/17 00:51:25;;;;;;;1.80;1.70;;;24.50;45.40;;;;;;4979218;28;20449;-64
2023/07/17 00:53:52;;;;;;;1.47;1.37;;;24.50;45.40;;;;;;4974007;28;20513;-63
2023/07/17 00:56:17;;;;;;;1.77;1.67;;;24.50;45.40;;;;;;4974091;28;20319;-62
2023/07/17 00:58:43;;;;;;;1.53;1.43;;;24.50;45.50;;;;;;4976108;28;20476;-62
2023/07/17 01:01:09;;;;;;;1.50;1.40;;;24.50;45.40;;;;;;4980693;28;20224;-64
2023/07/17 01:03:35;;;;;;;1.70;1.60;;;24.50;45.40;;;;;;4974835;28;20220;-63
2023/07/17 01:06:01;;;;;;;1.70;1.60;;;24.50;45.40;;;;;;4973273;28;20255;-62
2023/07/17 01:08:26;;;;;;;1.50;1.40;;;24.50;45.40;;;;;;4973473;28;20470;-63
2023/07/17 01:10:52;;;;;;;1.67;1.57;;;24.50;45.50;;;;;;4973779;28;20240;-62
2023/07/17 01:13:18;;;;;;;1.67;1.57;;;24.50;45.40;;;;;;4976122;28;20212;-63
2023/07/17 01:15:43;;;;;;;1.47;1.37;;;24.50;45.50;;;;;;4972917;28;20464;-63
2023/07/17 01:18:09;;;;;;;1.70;1.60;;;24.50;45.50;;;;;;4975601;28;20278;-64
2023/07/17 01:20:35;;;;;;;1.50;1.40;;;24.50;45.50;;;;;;4974129;28;20235;-64
2023/07/17 01:23:05;;;;;;;1.70;1.60;;;24.50;45.40;;;;;;4976712;28;20842;-63
2023/07/17 01:25:30;;;;;;;1.70;1.60;;;24.50;45.40;;;;;;4980614;28;20256;-63
2023/07/17 01:27:56;;;;;;;1.53;1.43;;;24.50;45.40;;;;;;4978109;28;20544;-62
2023/07/17 01:30:22;;;;;;;1.60;1.50;;;24.50;45.50;;;;;;4972155;28;20658;-63
2023/07/17 01:32:47;;;;;;;1.53;1.43;;;24.50;45.50;;;;;;4973287;28;20235;-62
2023/07/17 01:35:13;;;;;;;1.50;1.40;;;24.50;45.40;;;;;;4988597;28;20234;-63
2023/07/17 01:37:38;;;;;;;2.17;1.50;;;24.50;45.50;;;;;;4991183;28;20228;-62
2023/07/17 01:40:05;;;;;;;1.83;1.73;;;24.50;45.50;;;;;;4989186;28;20705;-65
2023/07/17 01:42:31;;;;;;;1.50;1.40;;;24.50;45.50;;;;;;4974953;28;20364;-62
2023/07/17 01:44:56;;;;;;;1.50;1.40;;;24.50;45.50;;;;;;4985630;28;21475;-63
2023/07/17 01:47:22;;;;;;;1.63;1.53;;;24.50;45.50;;;;;;4992966;28;20978;-63
2023/07/17 01:49:47;;;;;;;1.50;1.40;;;24.50;45.50;;;;;;4980265;28;20247;-64
2023/07/17 01:52:13;;;;;;;1.67;1.57;;;24.50;45.50;;;;;;4985446;28;20227;-63
2023/07/17 01:54:38;;;;;;;1.50;1.40;;;24.50;45.50;;;;;;4991650;28;20231;-63
2023/07/17 01:57:04;;;;;;;1.63;1.53;;;24.50;45.50;;;;;;4994219;28;20232;-63
2023/07/17 01:59:30;;;;;;;1.60;1.50;;;24.50;45.50;;;;;;4985167;28;20243;-63
2023/07/17 02:01:56;;;;;;;1.57;1.47;;;24.50;45.50;;;;;;4975492;28;20224;-63
2023/07/17 02:04:21;;;;;;;1.50;1.40;;;24.50;45.50;;;;;;4972017;28;20799;-63
2023/07/17 02:06:47;;;;;;;1.50;1.40;;;24.50;45.50;;;;;;4971818;28;20578;-63
2023/07/17 02:09:13;;;;;;;1.50;1.40;;;24.50;45.50;;;;;;4971957;28;20314;-64
2023/07/17 02:11:38;;;;;;;1.33;1.23;;;24.50;45.50;;;;;;4988396;28;20293;-62
2023/07/17 02:14:04;;;;;;;1.40;1.30;;;24.50;45.50;;;;;;4994235;28;20311;-62
2023/07/17 02:16:30;;;;;;;1.37;1.27;;;24.50;45.50;;;;;;4991177;28;20301;-62
2023/07/17 02:18:55;;;;;;;1.30;1.20;;;24.50;45.50;;;;;;4991715;28;20944;-62
2023/07/17 02:21:21;;;;;;;1.50;1.40;;;24.50;45.50;;;;;;4993992;28;20802;-63
2023/07/17 02:23:47;;;;;;;1.50;1.40;;;24.50;45.50;;;;;;4975450;28;20228;-62
2023/07/17 02:26:12;;;;;;;1.60;1.50;;;24.50;45.50;;;;;;4973314;28;20230;-62
2023/07/17 02:28:38;;;;;;;1.30;1.20;;;24.50;45.50;;;;;;4971729;28;20739;-62
2023/07/17 02:31:04;;;;;;;1.53;1.30;;;24.50;45.50;;;;;;4974293;28;20223;-63
2023/07/17 02:33:29;;;;;;;1.50;1.40;;;24.50;45.50;;;;;;4992017;28;20740;-62
2023/07/17 02:35:55;;;;;;;1.80;1.70;;;24.50;45.50;;;;;;4978272;28;21972;-63
2023/07/17 02:38:20;;;;;;;1.37;1.27;;;24.50;45.50;;;;;;4988020;28;20226;-63
2023/07/17 02:40:46;;;;;;;1.50;1.40;;;24.50;45.50;;;;;;4994800;28;20229;-63
2023/07/17 02:43:12;;;;;;;1.33;1.23;;;24.50;45.50;;;;;;4990371;28;20214;-62
2023/07/17 02:45:37;;;;;;;1.30;1.20;;;24.40;45.50;;;;;;4983458;28;20219;-63
2023/07/17 02:48:03;;;;;;;1.30;1.20;;;24.50;45.50;;;;;;5001815;28;20215;-63
2023/07/17 02:50:29;;;;;;;1.40;1.30;;;24.50;45.50;;;;;;4984859;28;20759;-62
2023/07/17 02:52:55;;;;;;;1.40;1.30;;;24.50;45.50;;;;;;4990581;28;20532;-63
2023/07/17 02:55:21;;;;;;;1.50;1.20;;;24.40;45.50;;;;;;4975639;28;20223;-63
2023/07/17 02:57:47;;;;;;;1.40;1.30;;;24.40;45.40;;;;;;4985348;28;20481;-64
2023/07/17 03:00:14;;;;;;;1.30;1.20;;;24.50;45.50;;;;;;4975608;28;20573;-62
2023/07/17 03:02:41;;;;;;;1.50;1.40;;;24.40;45.50;;;;;;4977238;28;20993;-63
2023/07/17 03:05:08;;;;;;;1.40;1.30;;;24.50;45.50;;;;;;4976913;28;21952;-63
2023/07/17 03:07:35;;;;;;;1.37;1.27;;;24.50;45.50;;;;;;4979334;28;20492;-62
2023/07/17 03:10:00;;;;;;;1.50;1.40;;;24.40;45.50;;;;;;4984579;28;21080;-62
2023/07/17 03:12:26;;;;;;;1.50;1.40;;;24.50;45.50;;;;;;4976685;28;20504;-62
2023/07/17 03:14:51;;;;;;;1.40;1.30;;;24.50;45.50;;;;;;4977919;28;20223;-64
2023/07/17 03:17:17;;;;;;;1.50;1.40;;;24.50;45.50;;;;;;4976496;28;20708;-62
2023/07/17 03:19:42;;;;;;;1.40;1.30;;;24.40;45.50;;;;;;4984933;28;20267;-62
2023/07/17 03:22:08;;;;;;;1.50;1.40;;;24.50;45.50;;;;;;4978352;28;20252;-63
2023/07/17 03:24:33;;;;;;;1.60;1.20;;;24.50;45.50;;;;;;4975573;28;20228;-63
2023/07/17 03:26:59;;;;;;;1.40;1.30;;;24.50;45.50;;;;;;4985772;28;20232;-63
2023/07/17 03:29:26;;;;;;;1.30;1.20;;;24.50;45.50;;;;;;4981839;28;20235;-62
2023/07/17 03:31:52;;;;;;;1.50;1.40;;;24.40;46.20;;;;;;4975131;28;20231;-63
2023/07/17 03:34:17;;;;;;;1.40;1.30;;;24.40;45.50;;;;;;4974945;28;20456;-63
2023/07/17 03:36:43;;;;;;;1.20;1.10;;;24.40;45.50;;;;;;4975537;28;20465;-63
2023/07/17 03:39:08;;;;;;;1.20;1.10;;;24.50;45.60;;;;;;4982596;28;20242;-63
2023/07/17 03:41:34;;;;;;;1.30;1.20;;;24.40;45.50;;;;;;4995097;28;20359;-62
2023/07/17 03:44:02;;;;;;;1.60;1.50;;;24.40;45.60;;;;;;4997107;28;20334;-63
2023/07/17 03:46:27;;;;;;;1.20;1.10;;;24.40;45.50;;;;;;4989136;28;20226;-63
2023/07/17 03:48:53;;;;;;;1.57;1.47;;;24.50;45.50;;;;;;4982817;28;20849;-63
2023/07/17 03:51:19;;;;;;;1.40;1.30;;;24.40;45.50;;;;;;4993804;28;20222;-63
2023/07/17 03:53:44;;;;;;;1.33;1.23;;;24.50;45.60;;;;;;4995274;28;20223;-63
2023/07/17 03:56:10;;;;;;;1.40;1.30;;;24.50;45.50;;;;;;4992247;28;20262;-62
2023/07/17 03:58:35;;;;;;;1.33;1.23;;;24.40;45.50;;;;;;4995427;28;20265;-63
2023/07/17 04:01:01;;;;;;;1.40;1.30;;;24.50;45.50;;;;;;4992791;28;20242;-63
2023/07/17 04:03:26;;;;;;;1.33;1.23;;;24.40;46.30;;;;;;5000021;28;20251;-62
2023/07/17 04:05:52;;;;;;;1.30;1.20;;;24.40;45.50;;;;;;4992501;28;20261;-63
2023/07/17 04:08:18;;;;;;;1.20;1.10;;;24.40;45.50;;;;;;4994969;28;20317;-63
2023/07/17 04:10:43;;;;;;;1.30;1.20;;;24.40;45.50;;;;;;4994546;28;20325;-63
2023/07/17 04:13:09;;;;;;;1.30;1.20;;;24.50;45.60;;;;;;4993708;28;20821;-63
2023/07/17 04:15:36;;;;;;;1.40;1.30;;;24.40;45.50;;;;;;4989696;28;20232;-63
2023/07/17 04:18:02;;;;;;;1.33;1.23;;;24.40;45.50;;;;;;4981527;28;20234;-63
2023/07/17 04:20:27;;;;;;;1.20;1.10;;;24.50;45.60;;;;;;4989538;28;20945;-62
2023/07/17 04:22:53;;;;;;;1.27;1.17;;;24.40;45.50;;;;;;4975519;28;20441;-63
2023/07/17 04:25:18;;;;;;;2.80;1.43;;;24.40;46.30;;;;;;4974256;28;20244;-62
2023/07/17 04:27:44;;;;;;;1.23;1.13;;;24.40;45.50;;;;;;4973689;28;20305;-63
2023/07/17 04:30:10;;;;;;;1.27;1.17;;;24.40;45.50;;;;;;4979908;28;20605;-62
2023/07/17 04:32:35;;;;;;;1.30;1.20;;;24.40;45.50;;;;;;4982725;28;20216;-63
2023/07/17 04:35:02;;;;;;;1.13;1.03;;;24.40;45.60;;;;;;4972989;28;20228;-63
2023/07/17 04:37:27;;;;;;;1.50;1.40;;;24.40;45.50;;;;;;4975233;28;20231;-62
2023/07/17 04:39:53;;;;;;;1.10;1.00;;;24.40;45.50;;;;;;4976505;28;20799;-64
2023/07/17 04:42:18;;;;;;;1.30;1.20;;;24.40;45.50;;;;;;4983383;28;20706;-62
2023/07/17 04:44:44;;;;;;;1.20;1.10;;;24.40;45.50;;;;;;4976860;28;20258;-64
2023/07/17 04:47:10;;;;;;;1.20;1.10;;;24.40;45.40;;;;;;4982014;28;20850;-62
2023/07/17 04:49:36;;;;;;;1.20;1.10;;;24.50;45.50;;;;;;4975053;28;20224;-65
2023/07/17 04:52:01;;;;;;;1.20;1.10;;;24.40;45.50;;;;;;4975427;28;20456;-63
2023/07/17 04:54:27;;;;;;;1.10;1.00;;;24.50;45.50;;;;;;4981884;28;20303;-64
2023/07/17 04:56:53;;;;;;;1.43;1.10;;;24.50;45.40;;;;;;4979278;28;20231;-65
2023/07/17 04:59:19;;;;;;;1.30;1.20;;;24.50;45.50;;;;;;4989036;28;20238;-62
2023/07/17 05:01:45;;;;;;;1.10;1.00;;;24.50;45.40;;;;;;4986010;28;20741;-62
2023/07/17 05:04:10;;;;;;;1.30;1.20;;;24.50;45.40;;;;;;4976048;28;20544;-63
2023/07/17 05:06:36;;;;;;;1.50;1.40;;;24.50;45.40;;;;;;5016570;28;20306;-64
2023/07/17 05:09:02;;;;;;;1.20;1.10;;;24.50;45.40;;;;;;4978376;28;20567;-63
2023/07/17 05:11:27;;;;;;;1.40;1.30;;;24.50;45.40;;;;;;4971580;28;20234;-62
2023/07/17 05:13:53;;;;;;;1.27;1.17;;;24.50;45.40;;;;;;4972066;28;20216;-63
2023/07/17 05:16:18;;;;;;;1.23;1.13;;;24.50;45.40;;;;;;4971523;28;20224;-63
2023/07/17 05:18:44;;;;;;;1.20;1.10;;;24.50;45.40;;;;;;4973496;28;20341;-63
2023/07/17 05:21:10;;;;;;;1.30;1.20;;;24.50;45.40;;;;;;4972514;28;20216;-63
2023/07/17 05:23:35;;;;;;;1.13;1.03;;;24.50;45.40;;;;;;4975505;28;20254;-62
2023/07/17 05:26:03;;;;;;;1.03;0.97;;;24.50;45.40;;;;;;4973209;28;20233;-62
2023/07/17 05:28:29;;;;;;;1.30;1.20;;;24.50;45.40;;;;;;4974972;28;20887;-63
2023/07/17 05:30:56;;;;;;;1.30;1.20;;;24.50;45.30;;;;;;4991905;28;20472;-62
2023/07/17 05:33:23;;;;;;;1.30;1.20;;;24.50;45.40;;;;;;4992195;28;20227;-63
2023/07/17 05:35:49;;;;;;;1.20;1.10;;;24.50;45.40;;;;;;4972431;28;20492;-63
2023/07/17 05:38:14;;;;;;;1.13;1.03;;;24.50;45.40;;;;;;4987666;28;20967;-62
2023/07/17 05:40:40;;;;;;;1.10;1.00;;;24.50;45.30;;;;;;4993396;28;20460;-64
2023/07/17 05:43:07;;;;;;;0.87;0.87;;;24.50;45.40;;;;;;4997259;28;20218;-63
2023/07/17 05:45:33;;;;;;;1.20;1.10;;;24.50;45.40;;;;;;4988636;28;20462;-62
2023/07/17 05:47:59;;;;;;;1.30;1.00;;;24.50;45.40;;;;;;4980246;28;20463;-62
2023/07/17 05:50:24;;;;;;;1.40;1.30;;;24.50;45.40;;;;;;4992657;28;20250;-63
2023/07/17 05:52:50;;;;;;;1.40;1.30;;;24.50;45.30;;;;;;4975630;28;20254;-62
2023/07/17 05:55:16;;;;;;;1.20;1.10;;;24.50;45.40;;;;;;4972085;28;20227;-62
2023/07/17 05:57:41;;;;;;;1.20;1.10;;;24.50;45.40;;;;;;4981110;28;20680;-63
2023/07/17 06:00:14;;;;;;;1.20;1.10;;;24.50;45.40;;;;;;4973297;28;20246;-63
2023/07/17 06:02:41;;;;;;;1.27;1.17;;;24.50;45.40;;;;;;4994487;28;20251;-62
2023/07/17 06:05:07;;;;;;;1.30;1.20;;;24.50;45.30;;;;;;4989545;28;20470;-62
2023/07/17 06:07:33;;;;;;;1.10;1.00;;;24.50;45.30;;;;;;4993831;28;20773;-62
2023/07/17 06:09:59;;;;;;;1.20;1.10;;;24.50;45.40;;;;;;4974546;28;20453;-62
2023/07/17 06:12:24;;;;;;;1.20;1.10;;;24.50;45.40;;;;;;4972664;28;20236;-62
2023/07/17 06:14:50;;;;;;;1.30;1.20;;;24.50;45.30;;;;;;4971365;28;20231;-63
2023/07/17 06:17:15;;;;;;;0.93;0.90;;;24.50;45.40;;;;;;4979007;28;20231;-63
2023/07/17 06:19:41;;;;;;;1.30;1.20;;;24.50;45.40;;;;;;4979105;28;20264;-63
2023/07/17 06:22:06;;;;;;;1.00;0.93;;;24.50;45.40;;;;;;4992013;28;20834;-63
2023/07/17 06:24:32;;;;;;;0.93;0.93;;;24.50;45.30;;;;;;4998508;28;20227;-63
2023/07/17 06:26:59;;;;;;;1.10;1.00;;;24.50;45.40;;;;;;4995318;28;20227;-62
2023/07/17 06:29:25;;;;;;;0.80;0.80;;;24.50;45.30;;;;;;4996285;28;20848;-62
2023/07/17 06:31:50;;;;;;;1.37;1.27;;;24.50;45.30;;;;;;4995041;28;20970;-63
2023/07/17 06:34:16;;;;;;;1.40;1.30;;;24.50;45.30;;;;;;4988091;28;20649;-63
2023/07/17 06:36:41;;;;;;;1.00;1.00;;;24.50;45.30;;;;;;4979256;28;20223;-62
2023/07/17 06:39:07;;;;;;;1.10;1.00;;;24.50;45.30;;;;;;4989418;28;20227;-62
2023/07/17 06:41:32;;;;;;;1.27;1.17;;;24.50;45.30;;;;;;4997134;28;20765;-62
2023/07/17 06:43:58;;;;;;;1.33;1.23;;;24.50;45.30;;;;;;4997042;28;20216;-63
2023/07/17 06:46:24;;;;;;;1.33;1.23;;;24.60;45.40;;;;;;4997280;28;20219;-62
2023/07/17 06:48:49;;;;;;;1.40;1.30;;;24.50;45.30;;;;;;4997763;28;21654;-62
2023/07/17 06:51:15;;;;;;;0.80;0.80;;;24.50;45.30;;;;;;4995888;28;20227;-63
2023/07/17 06:53:41;;;;;;;0.97;0.90;;;24.50;45.30;;;;;;4998917;28;20305;-63
2023/07/17 06:56:06;;;;;;;1.20;1.10;;;24.50;45.40;;;;;;4995161;28;20235;-64
2023/07/17 06:58:32;;;;;;;1.30;1.20;;;24.50;45.30;;;;;;4997537;28;20477;-62
2023/07/17 07:00:58;;;;;;;1.33;1.23;;;24.60;45.30;;;;;;4985125;28;20243;-63
2023/07/17 07:03:26;;;;;;;1.13;1.03;;;24.50;45.30;;;;;;4977869;28;20220;-63
2023/07/17 07:05:55;;;;;;;1.20;1.10;;;24.50;45.30;;;;;;4974525;28;20485;-63
2023/07/17 07:08:21;;;;;;;1.10;1.00;;;24.50;45.40;;;;;;4983181;28;20461;-63
2023/07/17 07:10:49;;;;;;;1.20;1.10;;;24.60;45.30;;;;;;4975985;28;20499;-63
2023/07/17 07:13:14;;;;;;;1.20;1.10;;;24.60;45.30;;;;;;4976495;28;21033;-63
2023/07/17 07:15:40;;;;;;;1.50;1.40;;;24.60;45.30;;;;;;4988003;28;20519;-63
2023/07/17 07:18:05;;;;;;;2.30;1.10;;;24.60;45.30;;;;;;4995318;28;20241;-62
2023/07/17 07:20:31;;;;;;;1.40;1.10;;;24.60;45.30;;;;;;4994041;28;20232;-62
2023/07/17 07:22:56;;;;;;;1.20;1.10;;;24.60;45.30;;;;;;4989446;28;20246;-63
2023/07/17 07:25:22;;;;;;;1.00;0.90;;;24.60;45.30;;;;;;4975472;28;20517;-62
2023/07/17 07:27:47;;;;;;;1.20;1.10;;;24.60;45.30;;;;;;4978660;28;20229;-62
2023/07/17 07:30:13;;;;;;;1.20;1.10;;;24.60;45.30;;;;;;4975549;28;20227;-62
2023/07/17 07:32:39;;;;;;;0.80;0.80;;;24.60;45.30;;;;;;4985635;28;20234;-63
2023/07/17 07:35:05;;;;;;;1.20;1.10;;;24.60;45.30;;;;;;4976284;28;20235;-62
2023/07/17 07:37:30;;;;;;;1.10;1.00;;;24.60;45.30;;;;;;4973441;28;20446;-63
2023/07/17 07:39:56;;;;;;;1.10;1.00;;;24.60;45.30;;;;;;4975860;28;20323;-64
2023/07/17 07:42:21;;;;;;;1.27;1.17;;;24.60;45.30;;;;;;4975926;28;20775;-63
2023/07/17 07:44:47;;;;;;;1.10;1.00;;;24.60;45.30;;;;;;4972975;28;20224;-62
2023/07/17 07:47:12;;;;;;;1.00;0.90;;;24.60;45.30;;;;;;4986168;28;20231;-62
2023/07/17 07:49:38;;;;;;;1.10;1.00;;;24.60;45.30;;;;;;4974781;28;20216;-63
2023/07/17 07:52:04;;;;;;;1.07;1.00;;;24.60;45.20;;;;;;4979386;28;20228;-62
2023/07/17 07:54:29;;;;;;;1.30;1.20;;;24.60;45.30;;;;;;4983329;28;20228;-63
2023/07/17 07:56:54;;;;;;;1.10;1.00;;;24.60;45.70;;;;;;4976278;28;20303;-62
2023/07/17 07:59:20;;;;;;;1.00;1.00;;;24.60;45.30;;;;;;4975499;28;20725;-63
2023/07/17 08:01:46;;;;;;;1.30;1.20;;;24.60;45.30;;;;;;4977959;28;20231;-62
2023/07/17 08:04:11;;;;;;;1.27;1.17;;;24.70;45.30;;;;;;5005910;28;20237;-64
2023/07/17 08:06:37;;;;;;;1.20;1.10;;;24.60;45.20;;;;;;4980255;28;20232;-63
2023/07/17 08:09:02;;;;;;;1.20;1.10;;;24.60;46.10;;;;;;4978865;28;20220;-62
2023/07/17 08:11:28;;;;;;;1.10;1.00;;;24.60;45.20;;;;;;4977078;28;20229;-62
2023/07/17 08:13:53;;;;;;;0.80;0.80;;;24.60;45.20;;;;;;4994194;28;20207;-62
2023/07/17 08:16:19;;;;;;;1.10;1.00;;;24.60;45.20;;;;;;4974983;28;20327;-62
2023/07/17 08:18:46;;;;;;;1.30;1.20;;;24.70;45.40;;;;;;4984068;28;20291;-63
2023/07/17 08:21:12;;;;;;;1.10;1.00;;;24.60;45.20;;;;;;4974105;28;20235;-62
2023/07/17 08:23:37;;;;;;;0.90;0.90;;;24.60;45.30;;;;;;4990151;28;20445;-63
2023/07/17 08:26:04;;;;;;;1.40;1.30;;;24.60;45.30;;;;;;4974817;28;20220;-62
2023/07/17 08:28:29;;;;;;;1.00;1.00;;;24.60;45.20;;;;;;4974970;28;20219;-63
2023/07/17 08:30:55;;;;;;;1.27;1.17;;;24.60;45.30;;;;;;4974502;28;20470;-63
2023/07/17 08:33:21;;;;;;;1.23;1.13;;;24.70;45.40;;;;;;4975020;28;20314;-63
2023/07/17 08:35:47;;;;;;;1.20;1.10;;;24.70;45.40;;;;;;4976413;28;20656;-63
2023/07/17 08:38:13;;;;;;;1.20;1.10;;;24.70;45.30;;;;;;4975213;28;20450;-63
2023/07/17 08:40:39;;;;;;;1.13;1.03;;;24.70;45.30;;;;;;4973695;28;20767;-62
2023/07/17 08:43:06;;;;;;;1.20;1.10;;;24.70;45.30;;;;;;4979060;28;20679;-63
2023/07/17 08:45:34;;;;;;;1.20;1.10;;;24.70;45.30;;;;;;4971843;28;21098;-64
2023/07/17 08:48:00;;;;;;;1.47;1.37;;;24.70;45.30;;;;;;4975326;28;20477;-62
2023/07/17 08:50:26;;;;;;;1.20;1.10;;;24.70;45.30;;;;;;4974968;28;20460;-63
2023/07/17 08:52:54;;;;;;;1.10;1.00;;;24.70;45.30;;;;;;4976755;28;20224;-63
2023/07/17 08:55:21;;;;;;;1.40;1.30;;;24.70;45.30;;;;;;4985779;28;20604;-62
2023/07/17 08:57:52;;;;;;;1.30;1.20;;;24.70;45.30;;;;;;4975050;28;20999;-63
2023/07/17 09:00:19;;;;;;;1.50;1.40;;;24.70;45.20;;;;;;4973878;28;20836;-63
2023/07/17 09:02:45;;;;;;;1.30;1.20;;;24.70;45.30;;;;;;4973758;28;20872;-62
2023/07/17 09:05:10;;;;;;;1.30;1.20;;;24.70;45.30;;;;;;4975595;28;20470;-62
2023/07/17 09:07:36;;;;;;;1.20;1.10;;;24.70;45.20;;;;;;4974674;28;20751;-65
2023/07/17 09:10:15;;;;;;;1.20;1.10;;;24.70;45.20;;;;;;4974858;28;20238;-63
2023/07/17 09:12:42;;;;;;;1.27;1.17;;;24.70;45.20;;;;;;4995991;28;20226;-62
2023/07/17 09:15:08;;;;;;;1.13;1.07;;;24.70;45.20;;;;;;4994024;28;20957;-62
2023/07/17 09:17:34;;;;;;;1.10;1.00;;;24.70;45.20;;;;;;4985214;28;20445;-62
2023/07/17 09:20:08;;;;;;;1.23;1.13;;;24.70;45.10;;;;;;4973227;28;20993;-63
2023/07/17 09:22:34;;;;;;;1.20;1.10;;;24.70;45.10;;;;;;4975325;28;20277;-64
2023/07/17 09:25:00;;;;;;;1.40;1.30;;;24.70;45.20;;;;;;4971817;28;21069;-63
2023/07/17 09:27:25;;;;;;;1.20;1.10;;;24.70;45.10;;;;;;4974667;28;20238;-62
2023/07/17 09:29:51;;;;;;;1.27;1.17;;;24.70;45.10;;;;;;4971007;28;20231;-63
2023/07/17 09:32:18;;;;;;;1.17;1.07;;;24.70;45.10;;;;;;4973281;28;20232;-63
2023/07/17 09:34:50;;;;;;;1.50;1.40;;;24.70;45.10;;;;;;4975870;28;20216;-63
2023/07/17 09:37:15;;;;;;;0.90;0.90;;;24.70;45.10;;;;;;4972552;28;20565;-63
2023/07/17 09:39:41;;;;;;;1.20;1.10;;;24.70;45.10;;;;;;4975192;28;21042;-63
2023/07/17 09:42:24;;;;;;;1.20;1.10;;;24.70;45.10;;;;;;4973955;28;20299;-64
2023/07/17 09:44:52;;;;;;;1.20;1.10;;;24.70;45.10;;;;;;4972735;28;20659;-63
2023/07/17 09:47:18;;;;;;;1.30;1.20;;;24.70;45.10;;;;;;4974117;28;20957;-62
2023/07/17 09:49:45;;;;;;;1.30;1.20;;;24.70;45.00;;;;;;4974131;28;20906;-63
2023/07/17 09:52:12;;;;;;;1.10;1.00;;;24.70;45.00;;;;;;4970947;28;20463;-62
2023/07/17 09:54:39;;;;;;;2.07;1.10;;;24.70;45.00;;;;;;4972855;28;20547;-63
2023/07/17 09:57:07;;;;;;;1.47;1.37;;;24.70;45.00;;;;;;4978212;28;20564;-63
2023/07/17 09:59:37;;;;;;;1.30;1.20;;;24.70;45.00;;;;;;4985066;28;20470;-62
2023/07/17 10:02:07;;;;;;;1.30;1.20;;;24.70;45.00;;;;;;4992750;28;20486;-63
2023/07/17 10:04:38;;;;;;;1.33;1.23;;;24.70;45.00;;;;;;4985177;28;20557;-63
2023/07/17 10:07:06;;;;;;;1.50;1.40;;;24.70;45.10;;;;;;4984988;28;20453;-63
2023/07/17 10:09:36;;;;;;;1.43;1.10;;;24.70;44.90;;;;;;4976003;28;20517;-63
2023/07/17 10:12:03;;;;;;;1.20;1.10;;;24.70;44.90;;;;;;4970978;28;20446;-62
2023/07/17 10:14:30;;;;;;;1.63;1.17;;;24.70;44.90;;;;;;4973119;28;20450;-63
2023/07/17 10:16:55;;;;;;;1.33;1.23;;;24.70;44.90;;;;;;4974764;28;20477;-64
2023/07/17 10:19:25;;;;;;;1.30;1.20;;;24.70;44.90;;;;;;4972498;28;20490;-62
2023/07/17 10:21:55;;;;;;;1.17;1.07;;;24.70;44.90;;;;;;4973374;28;20220;-65
2023/07/17 10:24:24;;;;;;;1.20;1.10;;;24.70;44.90;;;;;;4974323;28;20503;-63
2023/07/17 10:26:49;;;;;;;1.33;1.23;;;24.70;44.90;;;;;;4977771;28;20543;-63
2023/07/17 10:29:15;;;;;;;1.63;1.53;;;24.70;44.90;;;;;;4992062;28;20468;-63
2023/07/17 10:31:50;;;;;;;1.30;1.20;;;24.70;44.90;;;;;;4978909;28;20244;-62
2023/07/17 10:34:16;;;;;;;1.40;1.30;;;24.70;44.80;;;;;;4972267;28;20235;-62
2023/07/17 10:36:45;;;;;;;1.50;1.40;;;24.70;44.80;;;;;;4981188;28;20461;-62
2023/07/17 10:39:28;;;;;;;1.60;1.40;;;24.70;44.80;;;;;;4975211;28;20228;-65
2023/07/17 10:41:54;;;;;;;1.27;1.17;;;24.70;44.80;;;;;;4973428;28;20507;-64
2023/07/17 10:44:21;;;;;;;1.33;1.23;;;24.70;44.80;;;;;;4975297;28;20461;-63
2023/07/17 10:46:47;;;;;;;1.10;1.00;;;24.80;44.90;;;;;;4972868;28;20288;-63
2023/07/17 10:49:14;;;;;;;1.23;1.13;;;24.80;44.90;;;;;;4986589;28;20462;-63
2023/07/17 10:51:44;;;;;;;1.40;1.30;;;24.70;44.80;;;;;;4986326;28;20228;-63
2023/07/17 10:54:11;;;;;;;1.20;1.10;;;24.80;44.80;;;;;;4979745;28;20815;-63
2023/07/17 10:56:37;;;;;;;1.33;1.23;;;24.70;44.80;;;;;;4970147;28;20455;-63
2023/07/17 10:59:04;;;;;;;1.50;1.40;;;24.70;44.80;;;;;;4974817;28;21269;-63
2023/07/17 11:01:31;;;;;;;1.50;1.40;;;24.80;44.80;;;;;;4978371;28;20232;-62
2023/07/17 11:03:56;;;;;;;1.30;1.20;;;24.70;44.70;;;;;;4995399;28;20444;-62
2023/07/17 11:06:27;;;;;;;1.20;1.10;;;24.70;44.80;;;;;;4975732;28;20449;-62
2023/07/17 11:08:54;;;;;;;1.23;1.13;;;24.70;44.80;;;;;;4977367;28;20559;-63
2023/07/17 11:11:20;;;;;;;1.40;1.30;;;24.80;44.80;;;;;;4973843;28;20470;-63
2023/07/17 11:13:47;;;;;;;1.40;1.30;;;24.70;44.80;;;;;;4979755;28;21032;-63
2023/07/17 11:16:13;;;;;;;1.50;1.40;;;24.70;45.20;;;;;;4974161;28;20265;-62
2023/07/17 11:18:46;;;;;;;1.47;1.37;;;24.70;44.80;;;;;;4976442;28;20447;-62
2023/07/17 11:21:13;;;;;;;1.60;1.50;;;24.70;44.70;;;;;;4980684;28;20810;-62
2023/07/17 11:23:50;;;;;;;1.47;1.37;;;24.70;44.70;;;;;;4981922;28;20465;-62
2023/07/17 11:26:18;;;;;;;1.40;1.30;;;24.70;44.70;;;;;;4974337;28;20466;-63
2023/07/17 11:28:48;;;;;;;1.40;1.30;;;24.70;44.70;;;;;;4976682;28;20482;-63
2023/07/17 11:31:32;;;;;;;1.60;1.50;;;24.70;44.80;;;;;;4974083;28;20459;-65
2023/07/17 11:34:00;;;;;;;1.30;1.20;;;24.70;44.70;;;;;;4976161;28;20453;-62
2023/07/17 11:36:39;;;;;;;1.60;1.50;;;24.70;44.80;;;;;;4976194;28;20463;-63
2023/07/17 11:39:12;;;;;;;1.47;1.37;;;24.70;44.70;;;;;;4997202;28;20475;-62
2023/07/17 11:41:43;;;;;;;1.57;1.47;;;24.70;44.80;;;;;;4978743;28;20977;-63
2023/07/17 11:44:09;;;;;;;1.70;1.40;;;24.70;44.70;;;;;;4975284;28;20540;-63
2023/07/17 11:46:35;;;;;;;1.50;1.40;;;24.70;44.70;;;;;;4976203;28;20495;-63
2023/07/17 11:49:00;;;;;;;1.40;1.30;;;24.70;44.70;;;;;;4983127;28;20250;-63
2023/07/17 11:51:26;;;;;;;1.40;1.30;;;24.70;44.70;;;;;;4973734;28;20243;-63
2023/07/17 11:53:56;;;;;;;1.50;1.40;;;24.70;44.80;;;;;;4988511;28;20247;-63
2023/07/17 11:56:35;;;;;;;1.50;1.40;;;24.70;44.70;;;;;;4979074;28;20224;-62
2023/07/17 11:59:02;;;;;;;1.70;1.60;;;24.70;44.70;;;;;;4974156;28;20473;-63
2023/07/17 12:01:27;;;;;;;1.53;1.27;;;24.70;44.70;;;;;;4975144;28;20496;-62
2023/07/17 12:03:53;;;;;;;1.70;1.60;;;24.70;44.70;;;;;;4978659;28;20997;-63
2023/07/17 12:06:18;;;;;;;1.60;1.50;;;24.70;44.70;;;;;;4992172;28;20701;-62
2023/07/17 12:08:46;;;;;;;1.50;1.40;;;24.70;44.70;;;;;;4994552;28;20225;-62
2023/07/17 12:11:12;;;;;;;1.30;1.20;;;24.70;44.70;;;;;;4992658;28;20657;-62
2023/07/17 12:13:38;;;;;;;1.50;1.40;;;24.70;44.70;;;;;;4998606;28;20475;-62
2023/07/17 12:16:03;;;;;;;1.50;1.40;;;24.70;44.70;;;;;;4994013;28;20587;-63
2023/07/17 12:18:29;;;;;;;1.60;1.40;;;24.70;44.70;;;;;;4995104;28;20285;-62
2023/07/17 12:20:55;;;;;;;1.73;1.63;;;24.70;44.70;;;;;;4983678;28;20224;-63
2023/07/17 12:23:21;;;;;;;1.40;1.30;;;24.70;44.70;;;;;;4985202;28;20216;-62
2023/07/17 12:25:48;;;;;;;1.50;1.40;;;24.70;44.60;;;;;;4993379;28;20713;-63
2023/07/17 12:28:13;;;;;;;1.73;1.63;;;24.70;44.70;;;;;;4994628;28;20465;-63
2023/07/17 12:30:39;;;;;;;1.50;1.40;;;24.70;45.10;;;;;;4992680;28;20548;-63
2023/07/17 12:33:04;;;;;;;1.67;1.57;;;24.70;44.60;;;;;;4994719;28;20538;-62
2023/07/17 12:35:30;;;;;;;1.50;1.40;;;24.70;44.70;;;;;;4994010;28;20919;-63
2023/07/17 12:37:55;;;;;;;1.70;1.60;;;24.70;44.60;;;;;;4993195;28;20771;-63
2023/07/17 12:40:21;;;;;;;1.77;1.67;;;24.70;44.70;;;;;;4994129;28;20245;-63
2023/07/17 12:42:47;;;;;;;1.43;1.33;;;24.70;44.60;;;;;;4993119;28;20247;-63